Nicolas A — TCNT4 — position and weather

sailwx.info

Track history (hours):
 
Tides and Currents Weather Stations Pressure Air Temp Water Temp Dewpoint Dewpoint Depression Visibility Wind Speed Wind Dir Waves Ship Positions

Nicolas A

Last reported at 2017-Dec-10 13:26 UTC. Time now 2017-Dec-15 21:47 UTC.
Position N 36°01' E 013°50'.

Length 133 m; draft 7.2 m.

Type: Ship. MMSI: 271043704.

Date/timePositionNaut miles runAvg speedWind from/ knotsBaromVisibWave heightAir tempDewpointWater temp
2017-Dec-10 13:26N 36°01' E 013°50'511.7
2017-Dec-10 13:00N 35°58' E 013°55'611.6
2017-Dec-10 12:30N 35°55' E 014°01'611.4
2017-Dec-10 12:00N 35°52' E 014°07'611.3
2017-Dec-10 11:30N 35°49' E 014°13'611.4
2017-Dec-10 11:00N 35°47' E 014°20'611.4
2017-Dec-10 10:30N 35°45' E 014°26'7 7.7
2017-Dec-10 09:38N 35°49' E 014°32'0 0.0
2017-Dec-09 20:28N 35°49' E 014°32'2 3.5
2017-Dec-09 20:00N 35°48' E 014°34'4 7.5
2017-Dec-09 19:30N 35°47' E 014°38'4 3.5
2017-Dec-09 18:20N 35°44' E 014°35'3 5.9
2017-Dec-09 17:52N 35°43' E 014°31'3 6.7
2017-Dec-09 17:27N 35°42' E 014°28'511.0
2017-Dec-09 17:00N 35°40' E 014°23'511.0
2017-Dec-09 16:30N 35°38' E 014°17'810.9
2017-Dec-09 15:47N 35°34' E 014°08'  
2017-Dec-03 20:39N 35°43' E 013°60'210.2
2017-Dec-03 20:30N 35°43' E 014°02'510.2
2017-Dec-03 19:58N 35°43' E 014°08'510.0
2017-Dec-03 19:30N 35°43' E 014°14'5 9.9
2017-Dec-03 19:00N 35°43' E 014°20'5 9.9
2017-Dec-03 18:30N 35°44' E 014°26'8 0.4
2017-Dec-02 23:23N 35°49' E 014°33'2 5.3
2017-Dec-02 23:00N 35°48' E 014°35'2 3.4
2017-Dec-02 22:30N 35°48' E 014°37'2 3.7
2017-Dec-02 22:00N 35°48' E 014°39'3 5.9
2017-Dec-02 21:30N 35°50' E 014°42'2 3.6
2017-Dec-02 20:57N 35°51' E 014°43'0 0.2
2017-Dec-02 20:30N 35°51' E 014°43'0 0.1
2017-Dec-02 20:00N 35°51' E 014°43'0 0.0
2017-Dec-02 19:30N 35°51' E 014°43'0 0.0
2017-Dec-02 19:00N 35°51' E 014°43'0 0.1
2017-Dec-02 18:30N 35°51' E 014°43'0 0.0
2017-Dec-02 18:00N 35°51' E 014°43'0 0.0
2017-Dec-02 17:30N 35°51' E 014°43'0 0.0
2017-Dec-02 16:48N 35°51' E 014°43'0 0.1
2017-Dec-02 16:30N 35°51' E 014°43'0 0.0
2017-Dec-02 16:00N 35°51' E 014°43'0 0.0
2017-Dec-02 15:28N 35°51' E 014°43'0 0.0
2017-Dec-02 14:55N 35°51' E 014°43'0 0.0
2017-Dec-02 14:27N 35°51' E 014°43'0 0.0
2017-Dec-02 14:00N 35°51' E 014°43'0 0.0
2017-Dec-02 13:30N 35°51' E 014°43'0 0.0
2017-Dec-02 12:58N 35°51' E 014°43'0 0.0
2017-Dec-02 12:30N 35°51' E 014°43'0 0.0
2017-Dec-02 12:00N 35°51' E 014°43'0 0.0
2017-Dec-02 11:30N 35°51' E 014°43'0 0.0
2017-Dec-02 10:57N 35°51' E 014°43'0 0.0
2017-Dec-02 10:27N 35°51' E 014°43'0 0.0
2017-Dec-02 09:51N 35°51' E 014°43'0 0.0
2017-Dec-02 09:24N 35°51' E 014°43'0 0.1
2017-Dec-02 08:55N 35°51' E 014°43'0 0.0
2017-Dec-02 08:30N 35°51' E 014°43'0 0.1
2017-Dec-02 07:51N 35°51' E 014°43'0 0.0
2017-Dec-02 07:30N 35°51' E 014°43'0 0.1
2017-Dec-02 07:00N 35°51' E 014°43'0 0.1
2017-Dec-02 06:30N 35°51' E 014°43'0 0.1
2017-Dec-02 05:57N 35°51' E 014°43'0 0.1
2017-Dec-02 05:25N 35°51' E 014°43'0 0.0
2017-Dec-02 03:42N 35°51' E 014°43'0 0.2
2017-Dec-02 03:30N 35°51' E 014°43'0 0.0
2017-Dec-02 02:33N 35°51' E 014°43'0 0.3
2017-Dec-02 02:30N 35°51' E 014°43'0 0.0
2017-Dec-02 01:54N 35°51' E 014°43'0 0.0
2017-Dec-02 00:01N 35°51' E 014°43'0 0.2
2017-Dec-01 23:54N 35°51' E 014°43'0 0.0
2017-Dec-01 23:24N 35°51' E 014°43'0 0.0
2017-Dec-01 21:36N 35°51' E 014°43'0 0.1
2017-Dec-01 21:24N 35°51' E 014°43'0 0.0
2017-Dec-01 20:54N 35°51' E 014°43'0 0.0
2017-Dec-01 20:30N 35°51' E 014°43'0 0.0
2017-Dec-01 19:51N 35°51' E 014°43'0 0.0
2017-Dec-01 19:28N 35°51' E 014°43'0 0.0
2017-Dec-01 18:54N 35°51' E 014°43'0 0.0
2017-Dec-01 18:30N 35°51' E 014°43'0 0.0
2017-Dec-01 17:57N 35°51' E 014°43'0 0.1
2017-Dec-01 17:30N 35°51' E 014°43'0 0.0
2017-Dec-01 17:00N 35°51' E 014°43'0 0.1
2017-Dec-01 16:30N 35°51' E 014°43'1 2.5
2017-Dec-01 16:00N 35°50' E 014°42'510.1
2017-Dec-01 15:28N 35°48' E 014°36'3 0.2
2017-Dec-01 00:38N 35°49' E 014°33'0 2.3
2017-Dec-01 00:30N 35°49' E 014°32'3 5.4
2017-Nov-30 23:53N 35°47' E 014°35'4 8.8
2017-Nov-30 23:29N 35°45' E 014°32'511.2
2017-Nov-30 23:00N 35°44' E 014°25'611.3
2017-Nov-30 22:30N 35°43' E 014°18'611.3
2017-Nov-30 22:00N 35°43' E 014°11'611.4
2017-Nov-30 21:30N 35°43' E 014°04'  
Track history (hours):
 
Tides and Currents Weather Stations Pressure Air Temp Water Temp Dewpoint Dewpoint Depression Visibility Wind Speed Wind Dir Waves Ship Positions

Nicolas A

Last reported at 2017-Dec-10 13:26 UTC. Time now 2017-Dec-15 21:47 UTC.
Position N 36°01' E 013°50'.

Length 133 m; draft 7.2 m.

Type: Ship. MMSI: 271043704.

Date/timePositionNaut miles runAvg speedWind from/ knotsBaromVisibWave heightAir tempDewpointWater temp
2017-Dec-10 13:26N 36°01' E 013°50'511.7
2017-Dec-10 13:00N 35°58' E 013°55'611.6
2017-Dec-10 12:30N 35°55' E 014°01'611.4
2017-Dec-10 12:00N 35°52' E 014°07'611.3
2017-Dec-10 11:30N 35°49' E 014°13'611.4
2017-Dec-10 11:00N 35°47' E 014°20'611.4
2017-Dec-10 10:30N 35°45' E 014°26'7 7.7
2017-Dec-10 09:38N 35°49' E 014°32'0 0.0
2017-Dec-09 20:28N 35°49' E 014°32'2 3.5
2017-Dec-09 20:00N 35°48' E 014°34'4 7.5
2017-Dec-09 19:30N 35°47' E 014°38'4 3.5
2017-Dec-09 18:20N 35°44' E 014°35'3 5.9
2017-Dec-09 17:52N 35°43' E 014°31'3 6.7
2017-Dec-09 17:27N 35°42' E 014°28'511.0
2017-Dec-09 17:00N 35°40' E 014°23'511.0
2017-Dec-09 16:30N 35°38' E 014°17'810.9
2017-Dec-09 15:47N 35°34' E 014°08'  
2017-Dec-03 20:39N 35°43' E 013°60'210.2
2017-Dec-03 20:30N 35°43' E 014°02'510.2
2017-Dec-03 19:58N 35°43' E 014°08'510.0
2017-Dec-03 19:30N 35°43' E 014°14'5 9.9
2017-Dec-03 19:00N 35°43' E 014°20'5 9.9
2017-Dec-03 18:30N 35°44' E 014°26'8 0.4
2017-Dec-02 23:23N 35°49' E 014°33'2 5.3
2017-Dec-02 23:00N 35°48' E 014°35'2 3.4
2017-Dec-02 22:30N 35°48' E 014°37'2 3.7
2017-Dec-02 22:00N 35°48' E 014°39'3 5.9
2017-Dec-02 21:30N 35°50' E 014°42'2 3.6
2017-Dec-02 20:57N 35°51' E 014°43'0 0.2
2017-Dec-02 20:30N 35°51' E 014°43'0 0.1
2017-Dec-02 20:00N 35°51' E 014°43'0 0.0
2017-Dec-02 19:30N 35°51' E 014°43'0 0.0
2017-Dec-02 19:00N 35°51' E 014°43'0 0.1
2017-Dec-02 18:30N 35°51' E 014°43'0 0.0
2017-Dec-02 18:00N 35°51' E 014°43'0 0.0
2017-Dec-02 17:30N 35°51' E 014°43'0 0.0
2017-Dec-02 16:48N 35°51' E 014°43'0 0.1
2017-Dec-02 16:30N 35°51' E 014°43'0 0.0
2017-Dec-02 16:00N 35°51' E 014°43'0 0.0
2017-Dec-02 15:28N 35°51' E 014°43'0 0.0
2017-Dec-02 14:55N 35°51' E 014°43'0 0.0
2017-Dec-02 14:27N 35°51' E 014°43'0 0.0
2017-Dec-02 14:00N 35°51' E 014°43'0 0.0
2017-Dec-02 13:30N 35°51' E 014°43'0 0.0
2017-Dec-02 12:58N 35°51' E 014°43'0 0.0
2017-Dec-02 12:30N 35°51' E 014°43'0 0.0
2017-Dec-02 12:00N 35°51' E 014°43'0 0.0
2017-Dec-02 11:30N 35°51' E 014°43'0 0.0
2017-Dec-02 10:57N 35°51' E 014°43'0 0.0
2017-Dec-02 10:27N 35°51' E 014°43'0 0.0
2017-Dec-02 09:51N 35°51' E 014°43'0 0.0
2017-Dec-02 09:24N 35°51' E 014°43'0 0.1
2017-Dec-02 08:55N 35°51' E 014°43'0 0.0
2017-Dec-02 08:30N 35°51' E 014°43'0 0.1
2017-Dec-02 07:51N 35°51' E 014°43'0 0.0
2017-Dec-02 07:30N 35°51' E 014°43'0 0.1
2017-Dec-02 07:00N 35°51' E 014°43'0 0.1
2017-Dec-02 06:30N 35°51' E 014°43'0 0.1
2017-Dec-02 05:57N 35°51' E 014°43'0 0.1
2017-Dec-02 05:25N 35°51' E 014°43'0 0.0
2017-Dec-02 03:42N 35°51' E 014°43'0 0.2
2017-Dec-02 03:30N 35°51' E 014°43'0 0.0
2017-Dec-02 02:33N 35°51' E 014°43'0 0.3
2017-Dec-02 02:30N 35°51' E 014°43'0 0.0
2017-Dec-02 01:54N 35°51' E 014°43'0 0.0
2017-Dec-02 00:01N 35°51' E 014°43'0 0.2
2017-Dec-01 23:54N 35°51' E 014°43'0 0.0
2017-Dec-01 23:24N 35°51' E 014°43'0 0.0
2017-Dec-01 21:36N 35°51' E 014°43'0 0.1
2017-Dec-01 21:24N 35°51' E 014°43'0 0.0
2017-Dec-01 20:54N 35°51' E 014°43'0 0.0
2017-Dec-01 20:30N 35°51' E 014°43'0 0.0
2017-Dec-01 19:51N 35°51' E 014°43'0 0.0
2017-Dec-01 19:28N 35°51' E 014°43'0 0.0
2017-Dec-01 18:54N 35°51' E 014°43'0 0.0
2017-Dec-01 18:30N 35°51' E 014°43'0 0.0
2017-Dec-01 17:57N 35°51' E 014°43'0 0.1
2017-Dec-01 17:30N 35°51' E 014°43'0 0.0
2017-Dec-01 17:00N 35°51' E 014°43'0 0.1
2017-Dec-01 16:30N 35°51' E 014°43'1 2.5
2017-Dec-01 16:00N 35°50' E 014°42'510.1
2017-Dec-01 15:28N 35°48' E 014°36'3 0.2
2017-Dec-01 00:38N 35°49' E 014°33'0 2.3
2017-Dec-01 00:30N 35°49' E 014°32'3 5.4
2017-Nov-30 23:53N 35°47' E 014°35'4 8.8
2017-Nov-30 23:29N 35°45' E 014°32'511.2
2017-Nov-30 23:00N 35°44' E 014°25'611.3
2017-Nov-30 22:30N 35°43' E 014°18'611.3
2017-Nov-30 22:00N 35°43' E 014°11'611.4
2017-Nov-30 21:30N 35°43' E 014°04'  

Dump ship's entire track history